Metar z połowy godziny Komunikat METAR ze strony awiacja.imgw.pl Metar G30 EPSN METAR EPSN 230800Z 12010KT 7000 NSC M06/M09 Q1007 RMK M063 081 0/0=